Metar Cercanos

 

LEPA - Palma De Mallorc, Spain
Distance from station: ONO 38km
Actualización: 24/02/2018 20:30
Parcialmente nuboso
Parcialmente nuboso
 Viento del ENE
Viento: ENE 6 km/h
Temperatura: 7°C
Rocío: 3°C
Humedad: 76%
Barómetro: 1009 hPa
Clouds: Parcialmente nuboso
Visibility: 10 km
Cloud details: Few Clouds 671 m
Parcialmente nuboso 1463 m
2018/02/24 19:30 LEPA 241930Z 07003KT 9999 FEW022 SCT048 07/03 Q1009 NOSIG
LEMH - Mahon/Menorca Is, Spain
Distance from station: ENE 105km
Actualización: 24/02/2018 20:30
Few Clouds
Few Clouds
 Viento del NNO
Viento: NNO 7 km/h
Temperatura: 7°C
Sensación frio: 6°C
Rocío: 3°C
Humedad: 76%
Barómetro: 1009 hPa
Clouds: Few Clouds
Visibility: 10 km
Cloud details: Few Clouds 914 m
2018/02/24 19:30 LEMH 241930Z 33004KT 9999 FEW030 07/03 Q1009
 
LEIB - Ibiza/Es Codola, Spain
Distance from station: OSO 165km
Actualización: 24/02/2018 20:30
Parcialmente nuboso
Parcialmente nuboso
 Viento del varies
Viento: varies 2 km/h
Temperatura: 7°C
Rocío: 5°C
Humedad: 87%
Barómetro: 1009 hPa
Clouds: Parcialmente nuboso
Visibility: 10 km
Cloud details: Few Clouds 610 m
Parcialmente nuboso 914 m
2018/02/24 19:30 LEIB 241930Z VRB01KT 9999 FEW020 SCT030 07/05 Q1009 NOSIG
LEBL - Barcelona Airpor, Spain
Distance from station: NNO 225km
Actualización: 24/02/2018 20:30
Few Clouds
Few Clouds
 Viento del ONO
Viento: ONO 6 km/h
Temperatura: 9°C
Rocío: 3°C
Humedad: 66%
Barómetro: 1009 hPa
Clouds: Few Clouds
Visibility: 10 km
Cloud details: Few Clouds 762 m
2018/02/24 19:30 LEBL 241930Z 29003KT 9999 FEW025 09/03 Q1009 NOSIG
 
LEVC - Valencia (civ/Mi, Spain
Distance from station: NO 188km
Actualización: 24/02/2018 20:30
Parcialmente nuboso
Parcialmente nuboso
 Viento del varies
Viento: varies 4 km/h
Temperatura: 11°C
Rocío: 6°C
Humedad: 72%
Barómetro: 1008 hPa
Clouds: Parcialmente nuboso
Visibility: 10 km
Cloud details: Parcialmente nuboso 671 m
2018/02/24 19:30 LEVC 241930Z VRB02KT 9999 SCT022 11/06 Q1008 NOSIG
LEGE - Gerona/Costa Bra, Spain
Distance from station: N 276km
Actualización: 24/02/2018 20:30
Muy nuboso
Muy nuboso
 Viento del N
Viento: N 2 km/h
Temperatura: 7°C
Rocío: 3°C
Humedad: 76%
Barómetro: 1009 hPa
Clouds: Muy nuboso
Visibility: 9 km
Cloud details: Few Clouds 853 m
Muy nuboso 1981 m
2018/02/24 19:30 LEGE 241930Z 35001KT 9000 FEW028 BKN065 07/03 Q1009
 
LEAL - Alicante/El Alte, Spain
Distance from station: OSO 344km
Actualización: 24/02/2018 20:30
Few Clouds
Few Clouds
 Viento del OSO
Viento: OSO 4 km/h
Temperatura: 9°C
Rocío: 6°C
Humedad: 82%
Barómetro: 1009 hPa
Clouds: Few Clouds
Visibility: 10 km
Cloud details: Few Clouds 762 m
2018/02/24 19:30 LEAL 241930Z 24002KT 9999 FEW025 09/06 Q1009 NOSIG
LEAM - Almeria Airport, Spain
Distance from station: SSO 56km
Actualización: 24/02/2018 20:30
Few Clouds
Few Clouds
 Viento del varies
Viento: varies 2 km/h
Temperatura: 10°C
Rocío: 5°C
Humedad: 71%
Barómetro: 1009 hPa
Clouds: Few Clouds
Visibility: 10 km
Cloud details: Few Clouds 1219 m
2018/02/24 19:30 LEAM 241930Z VRB01KT 9999 FEW040 10/05 Q1009
 
LEZG - Zaragoza (mil/Ci, Spain
Distance from station: NO 431km
Actualización: 24/02/2018 20:30
Parcialmente nuboso
Parcialmente nuboso
 Viento del SO
Viento: SO 11 km/h
Temperatura: 5°C
Sensación frio: 2°C
Rocío: -2°C
Humedad: 61%
Barómetro: 1009 hPa
Clouds: Parcialmente nuboso
Visibility: 9 km
2018/02/24 19:30 LEZG 241930Z 23006KT 9000 NSC 05/M02 Q1009
LEMD - Madrid/Barajas, Spain
Distance from station: ONO 234km
Actualización: 24/02/2018 20:30
Despejado
Despejado
 Viento del SO
Viento: SO 7 km/h
Temperatura: 9°C
Sensación frio: 8°C
Rocío: -10°C
Humedad: 25%
Barómetro: 1007 hPa
Resumen: Despejado
Visibility: greater than 10 km
2018/02/24 19:30 LEMD 241930Z 22004KT 200V260 CAVOK 09/M10 Q1007 NOSIG
 
LEGR - Granada Airport, Spain
Distance from station: OSO 62km
Actualización: 24/02/2018 20:30
Parcialmente nuboso
Parcialmente nuboso
 Viento del varies
Viento: varies 4 km/h
Temperatura: 8°C
Rocío: 3°C
Humedad: 71%
Barómetro: 1008 hPa
Clouds: Parcialmente nuboso
Visibility: 10 km
Cloud details: Parcialmente nuboso 1524 m
2018/02/24 19:30 LEGR 241930Z VRB02KT 9999 SCT050 08/03 Q1008
LEMG - Malaga (civ/Mil), Spain
Distance from station: OSO 227km
Actualización: 24/02/2018 20:30
Muy nuboso
Muy nuboso
 Viento del ESE
Viento: ESE 6 km/h
Temperatura: 13°C
Rocío: 7°C
Humedad: 67%
Barómetro: 1009 hPa
Clouds: Muy nuboso
Visibility: 10 km
Cloud details: Few Clouds 914 m
Parcialmente nuboso 1372 m
Muy nuboso 2591 m
2018/02/24 19:30 LEMG 241930Z 11003KT 9999 FEW030 SCT045 BKN085 13/07 Q1009 NOSIG
 
LEZL - Sevilla (civ/Mil, Spain
Distance from station: S 318km
Actualización: 24/02/2018 20:30
Despejado
Despejado
 Viento del SO
Viento: SO 9 km/h
Temperatura: 14°C
Rocío: 7°C
Humedad: 63%
Barómetro: 1008 hPa
Resumen: Despejado
Visibility: greater than 10 km
2018/02/24 19:30 LEZL 241930Z 22005KT 170V250 CAVOK 14/07 Q1008 NOSIG
LEVT - Vitoria, Spain
Distance from station: NO 226km
Actualización: 24/02/2018 20:30
Despejado
Despejado
 Viento del N
Viento: N 9 km/h
Temperatura: 2°C
Sensación frio: -1°C
Rocío: 0°C
Humedad: 87%
Barómetro: 1009 hPa
Resumen: Despejado
Visibility: greater than 10 km
2018/02/24 19:30 LEVT 241930Z 36005KT CAVOK 02/00 Q1009
 
LEBB - Bilbao/Sondica, Spain
Distance from station: NNO 235km
Actualización: 24/02/2018 20:30
Few Clouds
Few Clouds
 Viento del SE
Viento: SE 7 km/h
Temperatura: 5°C
Sensación frio: 3°C
Rocío: 1°C
Humedad: 76%
Barómetro: 1011 hPa
Clouds: Few Clouds
Visibility: 10 km
Cloud details: Few Clouds 823 m
2018/02/24 19:30 LEBB 241930Z 13004KT 9999 FEW027 05/01 Q1011 NOSIG
LESO - San Sebastian/Fu, Spain
Distance from station: N 231km
Actualización: 24/02/2018 20:30
Parcialmente nuboso
Parcialmente nuboso
 Viento del varies
Viento: varies 4 km/h
Temperatura: 5°C
Rocío: 2°C
Humedad: 81%
Barómetro: 1011 hPa
Clouds: Parcialmente nuboso
Visibility: 9 km
2018/02/24 19:30 LESO 241930Z VRB02KT 9000 NSC 05/02 Q1011
 
LEVD - Valladolid(Mil/C, Spain
Distance from station: ONO 239km
Actualización: 24/02/2018 20:30
Despejado
Despejado
 Viento del N
Viento: N 11 km/h
Temperatura: 1°C
Sensación frio: -2°C
Rocío: -10°C
Humedad: 44%
Barómetro: 1007 hPa
Resumen: Despejado
Visibility: greater than 10 km
2018/02/24 19:30 LEVD 241930Z 36006KT CAVOK 01/M10 Q1007
LESA - Salamanca (civ/M, Spain
Distance from station: ONO 349km
Actualización: 24/02/2018 19:00
NOT Current
Despejado
Despejado
 Viento del N
Viento: N 6 km/h
Temperatura: 8°C
Rocío: -11°C
Humedad: 25%
Barómetro: 1005 hPa
Resumen: Despejado
Visibility: greater than 10 km
2018/02/24 18:00 LESA 241800Z 01003KT CAVOK 08/M11 Q1005
 
LEXJ - Santander/Paraya, Spain
Distance from station: NNO 247km
Actualización: 24/02/2018 20:30
Parcialmente nuboso
Parcialmente nuboso
 Viento del ESE
Viento: ESE 11 km/h
Temperatura: 6°C
Sensación frio: 4°C
Rocío: 3°C
Humedad: 81%
Barómetro: 1011 hPa
Clouds: Parcialmente nuboso
Visibility: 7 km
2018/02/24 19:30 LEXJ 241930Z 11006KT 080V140 7000 NSC 06/03 Q1011
LEAS - Asturias/Aviles, Spain
Distance from station: NO 214km
Actualización: 24/02/2018 20:30
Few Clouds
Few Clouds
 Viento del ESE
Viento: ESE 13 km/h
Temperatura: 5°C
Sensación frio: 2°C
Rocío: 2°C
Humedad: 81%
Barómetro: 1010 hPa
Clouds: Few Clouds
Visibility: 9 km
Cloud details: Few Clouds 792 m
2018/02/24 19:30 LEAS 241930Z 12007KT 080V160 9000 FEW026 05/02 Q1010 NOSIG
 
LECO - La Coruna/Alvedr, Spain
Distance from station: ONO 222km
Actualización: 24/02/2018 20:30
Despejado
Despejado
 Viento del ONO
Viento: ONO 6 km/h
Temperatura: 8°C
Rocío: 4°C
Humedad: 76%
Barómetro: 1007 hPa
Resumen: Despejado
Visibility: greater than 10 km
2018/02/24 19:30 LECO 241930Z 30003KT 270V340 CAVOK 08/04 Q1007 NOSIG
LEVX - Vigo/Peinador, Spain
Distance from station: O 214km
Actualización: 24/02/2018 20:30
Despejado
Despejado
 Viento del O
Viento: O 7 km/h
Temperatura: 8°C
Sensación frio: 7°C
Rocío: 1°C
Humedad: 62%
Barómetro: 1007 hPa
Resumen: Despejado
Visibility: greater than 10 km
2018/02/24 19:30 LEVX 241930Z 27004KT 240V300 CAVOK 08/01 Q1007 NOSIG